Straumvik — LEYJ — position and weather

sailwx.info

Track history (hours):
 
Tides and Currents Weather Stations Pressure Air Temp Water Temp Dewpoint Dewpoint Depression Visibility Wind Speed Wind Dir Waves Ship Positions

Straumvik

Last reported at 2017-Feb-22 23:33 UTC. Time now 2017-Feb-23 00:26 UTC.
Position N 61°35' E 004°60'.

Length 50 m; draft 5 m.

Type: Ship. MMSI: 258260000.

Date/timePositionNaut miles runAvg speedWind from/ knotsBaromVisibWave heightAir tempDewpointWater temp
2017-Feb-22 23:33N 61°35' E 004°60'3 3.3
2017-Feb-22 22:32N 61°39' E 004°59'8 8.1
2017-Feb-22 21:33N 61°46' E 005°03'8 8.2
2017-Feb-22 20:33N 61°52' E 005°16'7 6.7
2017-Feb-22 19:33N 61°57' E 005°09'8 8.0
2017-Feb-22 18:33N 62°05' E 005°06'7 6.8
2017-Feb-22 17:33N 62°12' E 005°04'6 5.8
2017-Feb-22 16:33N 62°13' E 005°16'7 6.6
2017-Feb-22 15:33N 62°12' E 005°30'8 8.4
2017-Feb-22 14:33N 62°12' E 005°48'8 8.2
2017-Feb-22 13:33N 62°18' E 006°02'8 8.3
2017-Feb-22 12:33N 62°22' E 006°16'9 8.5
2017-Feb-22 11:33N 62°26' E 006°33'8 8.3
2017-Feb-22 10:33N 62°26' E 006°51'9 8.6
2017-Feb-22 09:33N 62°18' E 006°59'8 7.6
2017-Feb-22 08:33N 62°18' E 007°16'0 0.0
2017-Feb-22 07:33N 62°18' E 007°16'0 0.0
2017-Feb-22 06:33N 62°18' E 007°16'0 0.0
2017-Feb-22 05:32N 62°18' E 007°16'0 0.0
2017-Feb-22 04:33N 62°18' E 007°16'0 0.0
2017-Feb-22 03:33N 62°18' E 007°16'0 0.0
2017-Feb-22 02:33N 62°18' E 007°16'0 0.0
2017-Feb-22 01:33N 62°18' E 007°16'0 0.0
2017-Feb-22 00:33N 62°18' E 007°16'0 0.0
2017-Feb-21 23:33N 62°18' E 007°16'0 0.0
2017-Feb-21 22:33N 62°18' E 007°16'0 0.0
2017-Feb-21 21:33N 62°18' E 007°16'2 2.3
2017-Feb-21 20:32N 62°17' E 007°11'8 7.9
2017-Feb-21 19:33N 62°20' E 006°56'8 7.8
2017-Feb-21 18:33N 62°27' E 006°47'9 9.5
2017-Feb-21 17:33N 62°25' E 006°27'10 9.8
2017-Feb-21 16:33N 62°21' E 006°07'1 1.2
2017-Feb-21 15:33N 62°21' E 006°04'0 0.0
2017-Feb-21 14:33N 62°21' E 006°04'0 0.0
2017-Feb-21 13:33N 62°21' E 006°04'0 0.0
2017-Feb-21 12:33N 62°21' E 006°04'0 0.2
2017-Feb-21 11:33N 62°21' E 006°05'6 5.6
2017-Feb-21 10:33N 62°16' E 005°58'8 8.6
2017-Feb-21 09:33N 62°12' E 005°43'8 8.1
2017-Feb-21 08:33N 62°11' E 005°26'7 7.0
2017-Feb-21 07:33N 62°14' E 005°12'6 6.0
2017-Feb-21 06:33N 62°08' E 005°05'6 6.5
2017-Feb-21 05:33N 62°02' E 005°09'8 7.8
2017-Feb-21 04:33N 61°55' E 005°08'6 5.7
2017-Feb-21 03:33N 61°49' E 005°13'8 8.1
2017-Feb-21 02:33N 61°45' E 004°59'8 7.9
2017-Feb-21 01:32N 61°37' E 004°58'7 7.3
2017-Feb-21 00:33N 61°29' E 004°59'7 7.1
2017-Feb-20 23:33N 61°22' E 005°02'6 6.0
2017-Feb-20 22:32N 61°17' E 004°56'6 5.9
2017-Feb-20 21:33N 61°12' E 005°01'8 8.1
2017-Feb-20 20:33N 61°04' E 004°59'8 7.8
2017-Feb-20 19:33N 60°56' E 004°57'6 5.9
2017-Feb-20 18:33N 60°51' E 005°04'0 0.2
2017-Feb-20 17:33N 60°51' E 005°04'0 0.0
2017-Feb-20 16:33N 60°51' E 005°04'0 0.0
2017-Feb-20 15:33N 60°51' E 005°04'2 2.3
2017-Feb-20 14:33N 60°49' E 005°04'1 0.6
2017-Feb-20 13:32N 60°48' E 005°04'0 0.0
2017-Feb-20 12:33N 60°48' E 005°04'0 0.0
2017-Feb-20 11:33N 60°48' E 005°04'0 0.0
2017-Feb-20 10:33N 60°48' E 005°04'0 0.0
2017-Feb-20 09:33N 60°48' E 005°04'0 0.0
2017-Feb-20 08:33N 60°48' E 005°04'0 0.0
2017-Feb-20 07:33N 60°48' E 005°04'0 0.1
2017-Feb-20 06:33N 60°48' E 005°04'3 3.2
2017-Feb-20 05:33N 60°51' E 005°02'0 0.0
2017-Feb-20 04:33N 60°51' E 005°02'0 0.0
2017-Feb-20 03:33N 60°51' E 005°02'0 0.0
2017-Feb-20 02:32N 60°51' E 005°02'0 0.0
2017-Feb-20 01:33N 60°51' E 005°02'0 0.0
2017-Feb-20 00:33N 60°51' E 005°02'8 7.6
2017-Feb-19 23:33N 60°50' E 004°47'9 9.0
2017-Feb-19 22:33N 60°42' E 004°51'10 9.5
2017-Feb-19 21:33N 60°36' E 005°07'1010.1
2017-Feb-19 20:33N 60°30' E 005°23'5 4.6
2017-Feb-19 19:32N 60°26' E 005°28'0 0.0
2017-Feb-19 18:32N 60°26' E 005°28'0 0.0
2017-Feb-19 17:33N 60°26' E 005°28'0 0.2
2017-Feb-19 16:32N 60°26' E 005°27'7 7.3
2017-Feb-19 15:33N 60°32' E 005°17'8 8.1
2017-Feb-19 14:30N 60°33' E 005°00'3 3.2
2017-Feb-19 13:33N 60°31' E 004°56'6 6.4
2017-Feb-19 12:33N 60°24' E 004°55'0 0.1
2017-Feb-19 11:33N 60°24' E 004°55'0 0.0
2017-Feb-19 10:33N 60°24' E 004°55'0 0.0
2017-Feb-19 09:33N 60°24' E 004°55'0 0.0
2017-Feb-19 08:33N 60°24' E 004°55'0 0.0
2017-Feb-19 07:33N 60°24' E 004°55'0 0.0
2017-Feb-19 06:33N 60°24' E 004°55'0 0.0
2017-Feb-19 05:33N 60°24' E 004°55'0 0.0
2017-Feb-19 04:32N 60°24' E 004°55'0 0.0
2017-Feb-19 03:33N 60°24' E 004°55'0 0.0
2017-Feb-19 02:33N 60°24' E 004°55'0 0.0
2017-Feb-19 01:33N 60°24' E 004°55'0 0.0
2017-Feb-19 00:33N 60°24' E 004°55'0 0.0
2017-Feb-18 23:33N 60°24' E 004°55'0 0.0
2017-Feb-18 22:33N 60°24' E 004°55'0 0.0
2017-Feb-18 21:33N 60°24' E 004°55'0 0.0
2017-Feb-18 20:33N 60°24' E 004°55'0 0.0
2017-Feb-18 19:33N 60°24' E 004°55'0 0.0
2017-Feb-18 18:33N 60°24' E 004°55'0 0.0
2017-Feb-18 17:33N 60°24' E 004°55'0 0.0
2017-Feb-18 16:33N 60°24' E 004°55'0 0.0
2017-Feb-18 15:33N 60°24' E 004°55'0 0.0
2017-Feb-18 14:33N 60°24' E 004°55'0 0.0
2017-Feb-18 13:33N 60°24' E 004°55'0 0.0
2017-Feb-18 12:33N 60°24' E 004°55'0 0.0
2017-Feb-18 11:33N 60°24' E 004°55'0 0.0
2017-Feb-18 10:33N 60°24' E 004°55'0 0.0
2017-Feb-18 09:33N 60°24' E 004°55'0 0.0
2017-Feb-18 08:33N 60°24' E 004°55'0 0.0
2017-Feb-18 07:33N 60°24' E 004°55'0 0.0
2017-Feb-18 06:32N 60°24' E 004°55'0 0.0
2017-Feb-18 05:33N 60°24' E 004°55'0 0.0
2017-Feb-18 04:33N 60°24' E 004°55'0 0.0
2017-Feb-18 03:33N 60°24' E 004°55'0 0.0
2017-Feb-18 02:33N 60°24' E 004°55'0 0.0
2017-Feb-18 01:33N 60°24' E 004°55'0 0.0
2017-Feb-18 00:33N 60°24' E 004°55'0 0.0
2017-Feb-17 23:33N 60°24' E 004°55'0 0.0
2017-Feb-17 22:33N 60°24' E 004°55'0 0.0
2017-Feb-17 21:33N 60°24' E 004°55'0 0.0
2017-Feb-17 20:33N 60°24' E 004°55'0 0.0
2017-Feb-17 19:33N 60°24' E 004°55'0 0.0
2017-Feb-17 18:33N 60°24' E 004°55'0 0.0
2017-Feb-17 17:33N 60°24' E 004°55'0 0.0
2017-Feb-17 16:33N 60°24' E 004°55'0 0.0
2017-Feb-17 15:32N 60°24' E 004°55'0 0.0
2017-Feb-17 14:33N 60°24' E 004°55'0 0.0
2017-Feb-17 13:34N 60°24' E 004°55'0 0.0
2017-Feb-17 12:33N 60°24' E 004°55'0 0.0
2017-Feb-17 11:33N 60°24' E 004°55'0 0.0
2017-Feb-17 10:33N 60°24' E 004°55'0 0.0
2017-Feb-17 09:33N 60°24' E 004°55'0 0.0
2017-Feb-17 08:33N 60°24' E 004°55'0 0.0
2017-Feb-17 07:33N 60°24' E 004°55'0 0.0
2017-Feb-17 06:33N 60°24' E 004°55'0 0.0
2017-Feb-17 05:33N 60°24' E 004°55'0 0.0
2017-Feb-17 04:33N 60°24' E 004°55'0 0.0
2017-Feb-17 03:33N 60°24' E 004°55'0 0.0
2017-Feb-17 02:33N 60°24' E 004°55'0 0.0
2017-Feb-17 01:33N 60°24' E 004°55'0 0.0
2017-Feb-17 00:33N 60°24' E 004°55'0 0.0
2017-Feb-16 23:33N 60°24' E 004°55'0 0.0
2017-Feb-16 22:33N 60°24' E 004°55'0 0.0
2017-Feb-16 21:33N 60°24' E 004°55'0 0.0
2017-Feb-16 20:33N 60°24' E 004°55'0 0.0
2017-Feb-16 19:33N 60°24' E 004°55'5 5.2
2017-Feb-16 18:33N 60°29' E 004°55'8 7.7
2017-Feb-16 17:33N 60°37' E 004°53'9 8.6
2017-Feb-16 16:33N 60°45' E 004°47'6 6.4
2017-Feb-16 15:33N 60°51' E 004°52'6 5.7
2017-Feb-16 14:32N 60°51' E 005°04'0 0.0
2017-Feb-16 13:33N 60°51' E 005°04'0 0.0
2017-Feb-16 12:33N 60°51' E 005°04'0 0.1
2017-Feb-16 11:33N 60°51' E 005°04'0 0.0
2017-Feb-16 10:32N 60°51' E 005°04'0 0.0
2017-Feb-16 09:33N 60°51' E 005°04'0 0.0
2017-Feb-16 08:33N 60°51' E 005°04'2 2.2
2017-Feb-16 07:33N 60°50' E 004°60'8 7.5
2017-Feb-16 06:33N 60°48' E 004°45'1010.3
2017-Feb-16 05:32N 60°39' E 004°55'9 9.5
2017-Feb-16 04:33N 60°34' E 005°12'5 5.1
2017-Feb-16 03:33N 60°35' E 005°22'0 0.0
2017-Feb-16 02:33N 60°35' E 005°22'2 1.9
2017-Feb-16 01:32N 60°33' E 005°22'9 8.8
2017-Feb-16 00:33N 60°25' E 005°16'9 8.8
2017-Feb-15 23:33N 60°17' E 005°11'10 9.6
2017-Feb-15 22:33N 60°08' E 005°17'1010.2
2017-Feb-15 21:33N 59°58' E 005°24'1010.0
2017-Feb-15 20:33N 59°49' E 005°33'9 9.1
2017-Feb-15 19:33N 59°41' E 005°24'10 9.9
2017-Feb-15 18:33N 59°33' E 005°14'9 9.3
2017-Feb-15 17:33N 59°24' E 005°16'0 0.1
2017-Feb-15 16:33N 59°24' E 005°16'0 0.0
2017-Feb-15 15:33N 59°24' E 005°16'0 0.5
2017-Feb-15 14:33N 59°23' E 005°17'9 8.9
2017-Feb-15 13:33N 59°15' E 005°22'9 8.6
2017-Feb-15 12:33N 59°12' E 005°38'8 8.1
2017-Feb-15 11:33N 59°15' E 005°53'0 0.1
2017-Feb-15 10:33N 59°15' E 005°53'0 0.1
2017-Feb-15 09:33N 59°14' E 005°53'0 0.0
2017-Feb-15 08:33N 59°14' E 005°53'0 0.1
2017-Feb-15 07:33N 59°15' E 005°53'0 0.1
2017-Feb-15 06:33N 59°15' E 005°53'1 1.1
2017-Feb-15 05:33N 59°16' E 005°53'0 0.0
2017-Feb-15 04:32N 59°16' E 005°53'0 0.0
2017-Feb-15 03:33N 59°16' E 005°53'0 0.0
2017-Feb-15 02:33N 59°16' E 005°53'0 0.0
2017-Feb-15 01:33N 59°16' E 005°53'0 0.0
2017-Feb-15 00:33N 59°16' E 005°53'0 0.0
2017-Feb-14 23:33N 59°16' E 005°53'0 0.0
2017-Feb-14 22:33N 59°16' E 005°53'0 0.0
2017-Feb-14 21:33N 59°16' E 005°53'0 0.0
2017-Feb-14 20:33N 59°16' E 005°53'0 0.0
2017-Feb-14 19:33N 59°16' E 005°53'0 0.0
2017-Feb-14 18:33N 59°16' E 005°53'3 3.2
2017-Feb-14 17:32N 59°12' E 005°54'9 8.9
2017-Feb-14 16:33N 59°04' E 005°51'8 8.4
2017-Feb-14 15:33N 58°56' E 005°47'5 4.7
2017-Feb-14 14:33N 58°51' E 005°45'0 0.0
2017-Feb-14 13:33N 58°51' E 005°45'0 0.0
2017-Feb-14 12:33N 58°51' E 005°45'0 0.0
2017-Feb-14 11:33N 58°51' E 005°45'0 0.0
2017-Feb-14 10:33N 58°51' E 005°45'0 0.0
2017-Feb-14 09:33N 58°51' E 005°45'0 0.0
2017-Feb-14 08:33N 58°51' E 005°45'0 0.0
2017-Feb-14 07:33N 58°51' E 005°45'3 3.2
2017-Feb-14 06:33N 58°54' E 005°46'7 7.0
2017-Feb-14 05:33N 59°01' E 005°51'8 7.9
2017-Feb-14 04:33N 59°08' E 005°45'9 8.7
2017-Feb-14 03:33N 59°12' E 005°30'8 7.6
2017-Feb-14 02:32N 59°18' E 005°20'9 9.0
2017-Feb-14 01:33N 59°26' E 005°14'9 9.0
2017-Feb-14 00:32N 59°35' E 005°10'8 8.5
2017-Feb-13 23:33N 59°43' E 005°04'8 8.1
2017-Feb-13 22:33N 59°51' E 005°00'8 7.7
2017-Feb-13 21:33N 59°59' E 004°59'7 7.4
2017-Feb-13 20:33N 60°06' E 004°56'8 7.6
2017-Feb-13 19:33N 60°13' E 004°55'8 7.8
2017-Feb-13 18:33N 60°21' E 004°54'3 2.9
2017-Feb-13 17:33N 60°24' E 004°55'0 0.0
2017-Feb-13 16:33N 60°24' E 004°55'0 0.0
2017-Feb-13 15:33N 60°24' E 004°55'0 0.0
2017-Feb-13 14:32N 60°24' E 004°55'0 0.0
2017-Feb-13 13:32N 60°24' E 004°55'0 0.0
2017-Feb-13 12:33N 60°24' E 004°55'0 0.0
2017-Feb-13 11:32N 60°24' E 004°55'0 0.0
2017-Feb-13 10:33N 60°24' E 004°55'0 0.0
2017-Feb-13 09:33N 60°24' E 004°55'0 0.0
2017-Feb-13 08:33N 60°24' E 004°55'0 0.0
2017-Feb-13 07:32N 60°24' E 004°55'0 0.0
2017-Feb-13 06:33N 60°24' E 004°55'0 0.0
2017-Feb-13 05:33N 60°24' E 004°55'0 0.0
2017-Feb-13 04:33N 60°24' E 004°55'0 0.0
2017-Feb-13 03:33N 60°24' E 004°55'0 0.0
2017-Feb-13 02:32N 60°24' E 004°55'0 0.0
2017-Feb-13 01:33N 60°24' E 004°55'0 0.0
2017-Feb-13 00:33N 60°24' E 004°55'  
Track history (hours):
 
Tides and Currents Weather Stations Pressure Air Temp Water Temp Dewpoint Dewpoint Depression Visibility Wind Speed Wind Dir Waves Ship Positions

Straumvik

Last reported at 2017-Feb-22 23:33 UTC. Time now 2017-Feb-23 00:26 UTC.
Position N 61°35' E 004°60'.

Length 50 m; draft 5 m.

Type: Ship. MMSI: 258260000.

Date/timePositionNaut miles runAvg speedWind from/ knotsBaromVisibWave heightAir tempDewpointWater temp
2017-Feb-22 23:33N 61°35' E 004°60'3 3.3
2017-Feb-22 22:32N 61°39' E 004°59'8 8.1
2017-Feb-22 21:33N 61°46' E 005°03'8 8.2
2017-Feb-22 20:33N 61°52' E 005°16'7 6.7
2017-Feb-22 19:33N 61°57' E 005°09'8 8.0
2017-Feb-22 18:33N 62°05' E 005°06'7 6.8
2017-Feb-22 17:33N 62°12' E 005°04'6 5.8
2017-Feb-22 16:33N 62°13' E 005°16'7 6.6
2017-Feb-22 15:33N 62°12' E 005°30'8 8.4
2017-Feb-22 14:33N 62°12' E 005°48'8 8.2
2017-Feb-22 13:33N 62°18' E 006°02'8 8.3
2017-Feb-22 12:33N 62°22' E 006°16'9 8.5
2017-Feb-22 11:33N 62°26' E 006°33'8 8.3
2017-Feb-22 10:33N 62°26' E 006°51'9 8.6
2017-Feb-22 09:33N 62°18' E 006°59'8 7.6
2017-Feb-22 08:33N 62°18' E 007°16'0 0.0
2017-Feb-22 07:33N 62°18' E 007°16'0 0.0
2017-Feb-22 06:33N 62°18' E 007°16'0 0.0
2017-Feb-22 05:32N 62°18' E 007°16'0 0.0
2017-Feb-22 04:33N 62°18' E 007°16'0 0.0
2017-Feb-22 03:33N 62°18' E 007°16'0 0.0
2017-Feb-22 02:33N 62°18' E 007°16'0 0.0
2017-Feb-22 01:33N 62°18' E 007°16'0 0.0
2017-Feb-22 00:33N 62°18' E 007°16'0 0.0
2017-Feb-21 23:33N 62°18' E 007°16'0 0.0
2017-Feb-21 22:33N 62°18' E 007°16'0 0.0
2017-Feb-21 21:33N 62°18' E 007°16'2 2.3
2017-Feb-21 20:32N 62°17' E 007°11'8 7.9
2017-Feb-21 19:33N 62°20' E 006°56'8 7.8
2017-Feb-21 18:33N 62°27' E 006°47'9 9.5
2017-Feb-21 17:33N 62°25' E 006°27'10 9.8
2017-Feb-21 16:33N 62°21' E 006°07'1 1.2
2017-Feb-21 15:33N 62°21' E 006°04'0 0.0
2017-Feb-21 14:33N 62°21' E 006°04'0 0.0
2017-Feb-21 13:33N 62°21' E 006°04'0 0.0
2017-Feb-21 12:33N 62°21' E 006°04'0 0.2
2017-Feb-21 11:33N 62°21' E 006°05'6 5.6
2017-Feb-21 10:33N 62°16' E 005°58'8 8.6
2017-Feb-21 09:33N 62°12' E 005°43'8 8.1
2017-Feb-21 08:33N 62°11' E 005°26'7 7.0
2017-Feb-21 07:33N 62°14' E 005°12'6 6.0
2017-Feb-21 06:33N 62°08' E 005°05'6 6.5
2017-Feb-21 05:33N 62°02' E 005°09'8 7.8
2017-Feb-21 04:33N 61°55' E 005°08'6 5.7
2017-Feb-21 03:33N 61°49' E 005°13'8 8.1
2017-Feb-21 02:33N 61°45' E 004°59'8 7.9
2017-Feb-21 01:32N 61°37' E 004°58'7 7.3
2017-Feb-21 00:33N 61°29' E 004°59'7 7.1
2017-Feb-20 23:33N 61°22' E 005°02'6 6.0
2017-Feb-20 22:32N 61°17' E 004°56'6 5.9
2017-Feb-20 21:33N 61°12' E 005°01'8 8.1
2017-Feb-20 20:33N 61°04' E 004°59'8 7.8
2017-Feb-20 19:33N 60°56' E 004°57'6 5.9
2017-Feb-20 18:33N 60°51' E 005°04'0 0.2
2017-Feb-20 17:33N 60°51' E 005°04'0 0.0
2017-Feb-20 16:33N 60°51' E 005°04'0 0.0
2017-Feb-20 15:33N 60°51' E 005°04'2 2.3
2017-Feb-20 14:33N 60°49' E 005°04'1 0.6
2017-Feb-20 13:32N 60°48' E 005°04'0 0.0
2017-Feb-20 12:33N 60°48' E 005°04'0 0.0
2017-Feb-20 11:33N 60°48' E 005°04'0 0.0
2017-Feb-20 10:33N 60°48' E 005°04'0 0.0
2017-Feb-20 09:33N 60°48' E 005°04'0 0.0
2017-Feb-20 08:33N 60°48' E 005°04'0 0.0
2017-Feb-20 07:33N 60°48' E 005°04'0 0.1
2017-Feb-20 06:33N 60°48' E 005°04'3 3.2
2017-Feb-20 05:33N 60°51' E 005°02'0 0.0
2017-Feb-20 04:33N 60°51' E 005°02'0 0.0
2017-Feb-20 03:33N 60°51' E 005°02'0 0.0
2017-Feb-20 02:32N 60°51' E 005°02'0 0.0
2017-Feb-20 01:33N 60°51' E 005°02'0 0.0
2017-Feb-20 00:33N 60°51' E 005°02'8 7.6
2017-Feb-19 23:33N 60°50' E 004°47'9 9.0
2017-Feb-19 22:33N 60°42' E 004°51'10 9.5
2017-Feb-19 21:33N 60°36' E 005°07'1010.1
2017-Feb-19 20:33N 60°30' E 005°23'5 4.6
2017-Feb-19 19:32N 60°26' E 005°28'0 0.0
2017-Feb-19 18:32N 60°26' E 005°28'0 0.0
2017-Feb-19 17:33N 60°26' E 005°28'0 0.2
2017-Feb-19 16:32N 60°26' E 005°27'7 7.3
2017-Feb-19 15:33N 60°32' E 005°17'8 8.1
2017-Feb-19 14:30N 60°33' E 005°00'3 3.2
2017-Feb-19 13:33N 60°31' E 004°56'6 6.4
2017-Feb-19 12:33N 60°24' E 004°55'0 0.1
2017-Feb-19 11:33N 60°24' E 004°55'0 0.0
2017-Feb-19 10:33N 60°24' E 004°55'0 0.0
2017-Feb-19 09:33N 60°24' E 004°55'0 0.0
2017-Feb-19 08:33N 60°24' E 004°55'0 0.0
2017-Feb-19 07:33N 60°24' E 004°55'0 0.0
2017-Feb-19 06:33N 60°24' E 004°55'0 0.0
2017-Feb-19 05:33N 60°24' E 004°55'0 0.0
2017-Feb-19 04:32N 60°24' E 004°55'0 0.0
2017-Feb-19 03:33N 60°24' E 004°55'0 0.0
2017-Feb-19 02:33N 60°24' E 004°55'0 0.0
2017-Feb-19 01:33N 60°24' E 004°55'0 0.0
2017-Feb-19 00:33N 60°24' E 004°55'0 0.0
2017-Feb-18 23:33N 60°24' E 004°55'0 0.0
2017-Feb-18 22:33N 60°24' E 004°55'0 0.0
2017-Feb-18 21:33N 60°24' E 004°55'0 0.0
2017-Feb-18 20:33N 60°24' E 004°55'0 0.0
2017-Feb-18 19:33N 60°24' E 004°55'0 0.0
2017-Feb-18 18:33N 60°24' E 004°55'0 0.0
2017-Feb-18 17:33N 60°24' E 004°55'0 0.0
2017-Feb-18 16:33N 60°24' E 004°55'0 0.0
2017-Feb-18 15:33N 60°24' E 004°55'0 0.0
2017-Feb-18 14:33N 60°24' E 004°55'0 0.0
2017-Feb-18 13:33N 60°24' E 004°55'0 0.0
2017-Feb-18 12:33N 60°24' E 004°55'0 0.0
2017-Feb-18 11:33N 60°24' E 004°55'0 0.0
2017-Feb-18 10:33N 60°24' E 004°55'0 0.0
2017-Feb-18 09:33N 60°24' E 004°55'0 0.0
2017-Feb-18 08:33N 60°24' E 004°55'0 0.0
2017-Feb-18 07:33N 60°24' E 004°55'0 0.0
2017-Feb-18 06:32N 60°24' E 004°55'0 0.0
2017-Feb-18 05:33N 60°24' E 004°55'0 0.0
2017-Feb-18 04:33N 60°24' E 004°55'0 0.0
2017-Feb-18 03:33N 60°24' E 004°55'0 0.0
2017-Feb-18 02:33N 60°24' E 004°55'0 0.0
2017-Feb-18 01:33N 60°24' E 004°55'0 0.0
2017-Feb-18 00:33N 60°24' E 004°55'0 0.0
2017-Feb-17 23:33N 60°24' E 004°55'0 0.0
2017-Feb-17 22:33N 60°24' E 004°55'0 0.0
2017-Feb-17 21:33N 60°24' E 004°55'0 0.0
2017-Feb-17 20:33N 60°24' E 004°55'0 0.0
2017-Feb-17 19:33N 60°24' E 004°55'0 0.0
2017-Feb-17 18:33N 60°24' E 004°55'0 0.0
2017-Feb-17 17:33N 60°24' E 004°55'0 0.0
2017-Feb-17 16:33N 60°24' E 004°55'0 0.0
2017-Feb-17 15:32N 60°24' E 004°55'0 0.0
2017-Feb-17 14:33N 60°24' E 004°55'0 0.0
2017-Feb-17 13:34N 60°24' E 004°55'0 0.0
2017-Feb-17 12:33N 60°24' E 004°55'0 0.0
2017-Feb-17 11:33N 60°24' E 004°55'0 0.0
2017-Feb-17 10:33N 60°24' E 004°55'0 0.0
2017-Feb-17 09:33N 60°24' E 004°55'0 0.0
2017-Feb-17 08:33N 60°24' E 004°55'0 0.0
2017-Feb-17 07:33N 60°24' E 004°55'0 0.0
2017-Feb-17 06:33N 60°24' E 004°55'0 0.0
2017-Feb-17 05:33N 60°24' E 004°55'0 0.0
2017-Feb-17 04:33N 60°24' E 004°55'0 0.0
2017-Feb-17 03:33N 60°24' E 004°55'0 0.0
2017-Feb-17 02:33N 60°24' E 004°55'0 0.0
2017-Feb-17 01:33N 60°24' E 004°55'0 0.0
2017-Feb-17 00:33N 60°24' E 004°55'0 0.0
2017-Feb-16 23:33N 60°24' E 004°55'0 0.0
2017-Feb-16 22:33N 60°24' E 004°55'0 0.0
2017-Feb-16 21:33N 60°24' E 004°55'0 0.0
2017-Feb-16 20:33N 60°24' E 004°55'0 0.0
2017-Feb-16 19:33N 60°24' E 004°55'5 5.2
2017-Feb-16 18:33N 60°29' E 004°55'8 7.7
2017-Feb-16 17:33N 60°37' E 004°53'9 8.6
2017-Feb-16 16:33N 60°45' E 004°47'6 6.4
2017-Feb-16 15:33N 60°51' E 004°52'6 5.7
2017-Feb-16 14:32N 60°51' E 005°04'0 0.0
2017-Feb-16 13:33N 60°51' E 005°04'0 0.0
2017-Feb-16 12:33N 60°51' E 005°04'0 0.1
2017-Feb-16 11:33N 60°51' E 005°04'0 0.0
2017-Feb-16 10:32N 60°51' E 005°04'0 0.0
2017-Feb-16 09:33N 60°51' E 005°04'0 0.0
2017-Feb-16 08:33N 60°51' E 005°04'2 2.2
2017-Feb-16 07:33N 60°50' E 004°60'8 7.5
2017-Feb-16 06:33N 60°48' E 004°45'1010.3
2017-Feb-16 05:32N 60°39' E 004°55'9 9.5
2017-Feb-16 04:33N 60°34' E 005°12'5 5.1
2017-Feb-16 03:33N 60°35' E 005°22'0 0.0
2017-Feb-16 02:33N 60°35' E 005°22'2 1.9
2017-Feb-16 01:32N 60°33' E 005°22'9 8.8
2017-Feb-16 00:33N 60°25' E 005°16'9 8.8
2017-Feb-15 23:33N 60°17' E 005°11'10 9.6
2017-Feb-15 22:33N 60°08' E 005°17'1010.2
2017-Feb-15 21:33N 59°58' E 005°24'1010.0
2017-Feb-15 20:33N 59°49' E 005°33'9 9.1
2017-Feb-15 19:33N 59°41' E 005°24'10 9.9
2017-Feb-15 18:33N 59°33' E 005°14'9 9.3
2017-Feb-15 17:33N 59°24' E 005°16'0 0.1
2017-Feb-15 16:33N 59°24' E 005°16'0 0.0
2017-Feb-15 15:33N 59°24' E 005°16'0 0.5
2017-Feb-15 14:33N 59°23' E 005°17'9 8.9
2017-Feb-15 13:33N 59°15' E 005°22'9 8.6
2017-Feb-15 12:33N 59°12' E 005°38'8 8.1
2017-Feb-15 11:33N 59°15' E 005°53'0 0.1
2017-Feb-15 10:33N 59°15' E 005°53'0 0.1
2017-Feb-15 09:33N 59°14' E 005°53'0 0.0
2017-Feb-15 08:33N 59°14' E 005°53'0 0.1
2017-Feb-15 07:33N 59°15' E 005°53'0 0.1
2017-Feb-15 06:33N 59°15' E 005°53'1 1.1
2017-Feb-15 05:33N 59°16' E 005°53'0 0.0
2017-Feb-15 04:32N 59°16' E 005°53'0 0.0
2017-Feb-15 03:33N 59°16' E 005°53'0 0.0
2017-Feb-15 02:33N 59°16' E 005°53'0 0.0
2017-Feb-15 01:33N 59°16' E 005°53'0 0.0
2017-Feb-15 00:33N 59°16' E 005°53'0 0.0
2017-Feb-14 23:33N 59°16' E 005°53'0 0.0
2017-Feb-14 22:33N 59°16' E 005°53'0 0.0
2017-Feb-14 21:33N 59°16' E 005°53'0 0.0
2017-Feb-14 20:33N 59°16' E 005°53'0 0.0
2017-Feb-14 19:33N 59°16' E 005°53'0 0.0
2017-Feb-14 18:33N 59°16' E 005°53'3 3.2
2017-Feb-14 17:32N 59°12' E 005°54'9 8.9
2017-Feb-14 16:33N 59°04' E 005°51'8 8.4
2017-Feb-14 15:33N 58°56' E 005°47'5 4.7
2017-Feb-14 14:33N 58°51' E 005°45'0 0.0
2017-Feb-14 13:33N 58°51' E 005°45'0 0.0
2017-Feb-14 12:33N 58°51' E 005°45'0 0.0
2017-Feb-14 11:33N 58°51' E 005°45'0 0.0
2017-Feb-14 10:33N 58°51' E 005°45'0 0.0
2017-Feb-14 09:33N 58°51' E 005°45'0 0.0
2017-Feb-14 08:33N 58°51' E 005°45'0 0.0
2017-Feb-14 07:33N 58°51' E 005°45'3 3.2
2017-Feb-14 06:33N 58°54' E 005°46'7 7.0
2017-Feb-14 05:33N 59°01' E 005°51'8 7.9
2017-Feb-14 04:33N 59°08' E 005°45'9 8.7
2017-Feb-14 03:33N 59°12' E 005°30'8 7.6
2017-Feb-14 02:32N 59°18' E 005°20'9 9.0
2017-Feb-14 01:33N 59°26' E 005°14'9 9.0
2017-Feb-14 00:32N 59°35' E 005°10'8 8.5
2017-Feb-13 23:33N 59°43' E 005°04'8 8.1
2017-Feb-13 22:33N 59°51' E 005°00'8 7.7
2017-Feb-13 21:33N 59°59' E 004°59'7 7.4
2017-Feb-13 20:33N 60°06' E 004°56'8 7.6
2017-Feb-13 19:33N 60°13' E 004°55'8 7.8
2017-Feb-13 18:33N 60°21' E 004°54'3 2.9
2017-Feb-13 17:33N 60°24' E 004°55'0 0.0
2017-Feb-13 16:33N 60°24' E 004°55'0 0.0
2017-Feb-13 15:33N 60°24' E 004°55'0 0.0
2017-Feb-13 14:32N 60°24' E 004°55'0 0.0
2017-Feb-13 13:32N 60°24' E 004°55'0 0.0
2017-Feb-13 12:33N 60°24' E 004°55'0 0.0
2017-Feb-13 11:32N 60°24' E 004°55'0 0.0
2017-Feb-13 10:33N 60°24' E 004°55'0 0.0
2017-Feb-13 09:33N 60°24' E 004°55'0 0.0
2017-Feb-13 08:33N 60°24' E 004°55'0 0.0
2017-Feb-13 07:32N 60°24' E 004°55'0 0.0
2017-Feb-13 06:33N 60°24' E 004°55'0 0.0
2017-Feb-13 05:33N 60°24' E 004°55'0 0.0
2017-Feb-13 04:33N 60°24' E 004°55'0 0.0
2017-Feb-13 03:33N 60°24' E 004°55'0 0.0
2017-Feb-13 02:32N 60°24' E 004°55'0 0.0
2017-Feb-13 01:33N 60°24' E 004°55'0 0.0
2017-Feb-13 00:33N 60°24' E 004°55'  

Dump ship's entire track history